sensor_id;sensor_type;location;lat;lon;timestamp;temperature;humidity
40636;DHT22;26642;55.766;37.828;2023-04-15T00:00:10;12.60;38.20
40636;DHT22;26642;55.766;37.828;2023-04-15T00:02:39;12.60;38.20
40636;DHT22;26642;55.766;37.828;2023-04-15T00:05:05;12.60;38.20
40636;DHT22;26642;55.766;37.828;2023-04-15T00:07:31;12.60;38.20
40636;DHT22;26642;55.766;37.828;2023-04-15T00:09:58;12.50;38.20
40636;DHT22;26642;55.766;37.828;2023-04-15T00:12:24;12.60;38.20
40636;DHT22;26642;55.766;37.828;2023-04-15T00:14:51;12.60;38.20
40636;DHT22;26642;55.766;37.828;2023-04-15T00:17:17;12.50;38.20
40636;DHT22;26642;55.766;37.828;2023-04-15T00:19:43;12.50;38.30
40636;DHT22;26642;55.766;37.828;2023-04-15T00:22:10;12.50;38.20
40636;DHT22;26642;55.766;37.828;2023-04-15T00:24:37;12.50;38.20
40636;DHT22;26642;55.766;37.828;2023-04-15T00:27:03;12.50;38.30
40636;DHT22;26642;55.766;37.828;2023-04-15T00:29:31;12.50;38.30
40636;DHT22;26642;55.766;37.828;2023-04-15T00:31:57;12.50;38.40
40636;DHT22;26642;55.766;37.828;2023-04-15T00:34:23;12.50;38.30
40636;DHT22;26642;55.766;37.828;2023-04-15T00:36:52;12.50;38.30
40636;DHT22;26642;55.766;37.828;2023-04-15T00:39:19;12.50;38.30
40636;DHT22;26642;55.766;37.828;2023-04-15T00:41:46;12.50;38.30
40636;DHT22;26642;55.766;37.828;2023-04-15T00:44:12;12.40;38.30
40636;DHT22;26642;55.766;37.828;2023-04-15T00:46:39;12.40;38.30
40636;DHT22;26642;55.766;37.828;2023-04-15T00:49:06;12.40;38.20
40636;DHT22;26642;55.766;37.828;2023-04-15T00:51:33;12.40;38.30
40636;DHT22;26642;55.766;37.828;2023-04-15T00:54:02;12.40;38.30
40636;DHT22;26642;55.766;37.828;2023-04-15T00:56:29;12.40;38.20
40636;DHT22;26642;55.766;37.828;2023-04-15T00:58:58;12.40;38.30
40636;DHT22;26642;55.766;37.828;2023-04-15T01:01:25;12.40;38.40
40636;DHT22;26642;55.766;37.828;2023-04-15T01:03:51;12.40;38.30
40636;DHT22;26642;55.766;37.828;2023-04-15T01:06:17;12.40;38.30
40636;DHT22;26642;55.766;37.828;2023-04-15T01:08:44;12.30;38.30
40636;DHT22;26642;55.766;37.828;2023-04-15T01:11:12;12.40;38.40
40636;DHT22;26642;55.766;37.828;2023-04-15T01:13:39;12.30;38.30
40636;DHT22;26642;55.766;37.828;2023-04-15T01:16:06;12.30;38.30
40636;DHT22;26642;55.766;37.828;2023-04-15T01:18:34;12.30;38.30
40636;DHT22;26642;55.766;37.828;2023-04-15T01:21:00;12.30;38.40
40636;DHT22;26642;55.766;37.828;2023-04-15T01:23:30;12.30;38.30
40636;DHT22;26642;55.766;37.828;2023-04-15T01:25:57;12.30;38.30
40636;DHT22;26642;55.766;37.828;2023-04-15T01:28:24;12.30;38.30
40636;DHT22;26642;55.766;37.828;2023-04-15T01:31:03;12.30;38.30
40636;DHT22;26642;55.766;37.828;2023-04-15T01:33:30;12.30;38.30
40636;DHT22;26642;55.766;37.828;2023-04-15T01:36:15;12.30;38.30
40636;DHT22;26642;55.766;37.828;2023-04-15T01:38:41;12.30;38.40
40636;DHT22;26642;55.766;37.828;2023-04-15T01:41:07;12.30;38.20
40636;DHT22;26642;55.766;37.828;2023-04-15T01:43:35;12.20;38.30
40636;DHT22;26642;55.766;37.828;2023-04-15T01:46:03;12.20;38.30
40636;DHT22;26642;55.766;37.828;2023-04-15T01:48:32;12.20;38.30
40636;DHT22;26642;55.766;37.828;2023-04-15T01:50:59;12.20;38.20
40636;DHT22;26642;55.766;37.828;2023-04-15T01:53:27;12.20;38.20
40636;DHT22;26642;55.766;37.828;2023-04-15T01:55:55;12.10;38.20
40636;DHT22;26642;55.766;37.828;2023-04-15T01:58:22;12.10;38.20
40636;DHT22;26642;55.766;37.828;2023-04-15T02:00:50;12.10;38.10
40636;DHT22;26642;55.766;37.828;2023-04-15T02:03:17;12.10;38.10
40636;DHT22;26642;55.766;37.828;2023-04-15T02:05:45;12.10;38.10
40636;DHT22;26642;55.766;37.828;2023-04-15T02:08:12;12.10;38.10
40636;DHT22;26642;55.766;37.828;2023-04-15T02:10:39;12.10;38.10
40636;DHT22;26642;55.766;37.828;2023-04-15T02:13:06;12.10;38.10
40636;DHT22;26642;55.766;37.828;2023-04-15T02:15:33;12.10;38.10
40636;DHT22;26642;55.766;37.828;2023-04-15T02:18:01;12.10;38.10
40636;DHT22;26642;55.766;37.828;2023-04-15T02:20:28;12.00;38.00
40636;DHT22;26642;55.766;37.828;2023-04-15T02:22:58;12.00;38.10
40636;DHT22;26642;55.766;37.828;2023-04-15T02:25:25;12.00;38.00
40636;DHT22;26642;55.766;37.828;2023-04-15T02:27:52;12.00;38.00
40636;DHT22;26642;55.766;37.828;2023-04-15T02:30:20;12.00;38.10
40636;DHT22;26642;55.766;37.828;2023-04-15T02:32:49;12.00;38.00
40636;DHT22;26642;55.766;37.828;2023-04-15T02:35:16;12.00;38.00
40636;DHT22;26642;55.766;37.828;2023-04-15T02:37:45;12.00;38.00
40636;DHT22;26642;55.766;37.828;2023-04-15T02:40:13;12.00;38.00
40636;DHT22;26642;55.766;37.828;2023-04-15T02:42:41;12.00;38.00
40636;DHT22;26642;55.766;37.828;2023-04-15T02:45:11;12.00;38.00
40636;DHT22;26642;55.766;37.828;2023-04-15T02:47:40;12.00;37.90
40636;DHT22;26642;55.766;37.828;2023-04-15T02:50:09;11.90;37.80
40636;DHT22;26642;55.766;37.828;2023-04-15T02:52:39;12.00;37.90
40636;DHT22;26642;55.766;37.828;2023-04-15T02:55:08;11.90;37.90
40636;DHT22;26642;55.766;37.828;2023-04-15T02:57:36;11.90;38.00
40636;DHT22;26642;55.766;37.828;2023-04-15T03:00:08;11.90;37.90
40636;DHT22;26642;55.766;37.828;2023-04-15T03:02:39;11.90;37.90
40636;DHT22;26642;55.766;37.828;2023-04-15T03:05:12;11.90;38.00
40636;DHT22;26642;55.766;37.828;2023-04-15T03:07:43;11.90;38.00
40636;DHT22;26642;55.766;37.828;2023-04-15T03:10:11;11.90;37.90
40636;DHT22;26642;55.766;37.828;2023-04-15T03:12:38;11.90;37.90
40636;DHT22;26642;55.766;37.828;2023-04-15T03:15:09;11.90;37.90
40636;DHT22;26642;55.766;37.828;2023-04-15T03:17:40;11.90;37.90
40636;DHT22;26642;55.766;37.828;2023-04-15T03:20:08;11.90;37.90
40636;DHT22;26642;55.766;37.828;2023-04-15T03:22:36;11.90;37.90
40636;DHT22;26642;55.766;37.828;2023-04-15T03:25:05;11.90;37.90
40636;DHT22;26642;55.766;37.828;2023-04-15T03:27:33;11.90;37.90
40636;DHT22;26642;55.766;37.828;2023-04-15T03:30:03;11.90;37.90
40636;DHT22;26642;55.766;37.828;2023-04-15T03:32:33;11.90;37.90
40636;DHT22;26642;55.766;37.828;2023-04-15T03:35:00;11.90;37.90
40636;DHT22;26642;55.766;37.828;2023-04-15T03:37:28;11.90;37.80
40636;DHT22;26642;55.766;37.828;2023-04-15T03:39:55;11.90;37.90
40636;DHT22;26642;55.766;37.828;2023-04-15T03:42:22;11.90;37.90
40636;DHT22;26642;55.766;37.828;2023-04-15T03:44:49;11.90;37.70
40636;DHT22;26642;55.766;37.828;2023-04-15T03:47:17;11.90;37.80
40636;DHT22;26642;55.766;37.828;2023-04-15T03:49:44;11.90;37.80
40636;DHT22;26642;55.766;37.828;2023-04-15T03:52:11;11.90;37.80
40636;DHT22;26642;55.766;37.828;2023-04-15T03:54:38;11.90;37.80
40636;DHT22;26642;55.766;37.828;2023-04-15T03:57:05;11.90;37.70
40636;DHT22;26642;55.766;37.828;2023-04-15T03:59:33;11.90;37.70
40636;DHT22;26642;55.766;37.828;2023-04-15T04:02:00;11.90;37.70
40636;DHT22;26642;55.766;37.828;2023-04-15T04:04:27;12.00;37.70
40636;DHT22;26642;55.766;37.828;2023-04-15T04:06:54;11.90;37.60
40636;DHT22;26642;55.766;37.828;2023-04-15T04:09:21;12.00;37.70
40636;DHT22;26642;55.766;37.828;2023-04-15T04:11:48;12.00;37.60
40636;DHT22;26642;55.766;37.828;2023-04-15T04:14:16;12.00;37.60
40636;DHT22;26642;55.766;37.828;2023-04-15T04:16:43;12.00;37.70
40636;DHT22;26642;55.766;37.828;2023-04-15T04:19:11;12.00;37.80
40636;DHT22;26642;55.766;37.828;2023-04-15T04:21:38;12.00;37.70
40636;DHT22;26642;55.766;37.828;2023-04-15T04:24:05;12.10;37.70
40636;DHT22;26642;55.766;37.828;2023-04-15T04:26:33;12.10;37.70
40636;DHT22;26642;55.766;37.828;2023-04-15T04:29:00;12.10;37.70
40636;DHT22;26642;55.766;37.828;2023-04-15T04:31:27;12.10;37.60
40636;DHT22;26642;55.766;37.828;2023-04-15T04:33:54;12.10;37.60
40636;DHT22;26642;55.766;37.828;2023-04-15T04:36:21;12.20;37.60
40636;DHT22;26642;55.766;37.828;2023-04-15T04:38:48;12.10;37.50
40636;DHT22;26642;55.766;37.828;2023-04-15T04:41:16;12.20;37.60
40636;DHT22;26642;55.766;37.828;2023-04-15T04:43:43;12.20;37.50
40636;DHT22;26642;55.766;37.828;2023-04-15T04:46:11;12.30;37.60
40636;DHT22;26642;55.766;37.828;2023-04-15T04:48:38;12.30;37.50
40636;DHT22;26642;55.766;37.828;2023-04-15T04:51:06;12.30;37.40
40636;DHT22;26642;55.766;37.828;2023-04-15T04:53:34;12.40;37.50
40636;DHT22;26642;55.766;37.828;2023-04-15T04:56:03;12.40;37.30
40636;DHT22;26642;55.766;37.828;2023-04-15T04:58:31;12.40;37.40
40636;DHT22;26642;55.766;37.828;2023-04-15T05:00:58;12.50;37.30
40636;DHT22;26642;55.766;37.828;2023-04-15T05:03:25;12.50;37.30
40636;DHT22;26642;55.766;37.828;2023-04-15T05:05:53;12.60;37.20
40636;DHT22;26642;55.766;37.828;2023-04-15T05:08:20;12.60;36.90
40636;DHT22;26642;55.766;37.828;2023-04-15T05:10:48;12.70;37.10
40636;DHT22;26642;55.766;37.828;2023-04-15T05:13:15;12.70;36.90
40636;DHT22;26642;55.766;37.828;2023-04-15T05:15:42;12.80;37.20
40636;DHT22;26642;55.766;37.828;2023-04-15T05:18:09;12.80;37.10
40636;DHT22;26642;55.766;37.828;2023-04-15T05:20:37;12.90;37.10
40636;DHT22;26642;55.766;37.828;2023-04-15T05:23:04;13.00;36.90
40636;DHT22;26642;55.766;37.828;2023-04-15T05:25:31;13.00;36.90
40636;DHT22;26642;55.766;37.828;2023-04-15T05:27:58;13.00;37.00
40636;DHT22;26642;55.766;37.828;2023-04-15T05:30:26;13.10;37.30
40636;DHT22;26642;55.766;37.828;2023-04-15T05:32:53;13.10;37.10
40636;DHT22;26642;55.766;37.828;2023-04-15T05:35:20;13.20;37.20
40636;DHT22;26642;55.766;37.828;2023-04-15T05:37:48;13.30;37.10
40636;DHT22;26642;55.766;37.828;2023-04-15T05:40:15;13.30;37.00
40636;DHT22;26642;55.766;37.828;2023-04-15T05:42:42;13.30;36.90
40636;DHT22;26642;55.766;37.828;2023-04-15T05:45:10;13.30;36.90
40636;DHT22;26642;55.766;37.828;2023-04-15T05:47:37;13.40;37.00
40636;DHT22;26642;55.766;37.828;2023-04-15T05:50:04;13.40;37.10
40636;DHT22;26642;55.766;37.828;2023-04-15T05:52:32;13.50;37.00
40636;DHT22;26642;55.766;37.828;2023-04-15T05:54:59;13.50;37.00
40636;DHT22;26642;55.766;37.828;2023-04-15T05:57:26;13.50;37.00
40636;DHT22;26642;55.766;37.828;2023-04-15T05:59:54;13.60;37.00
40636;DHT22;26642;55.766;37.828;2023-04-15T06:02:23;13.60;36.80
40636;DHT22;26642;55.766;37.828;2023-04-15T06:04:50;13.60;36.70
40636;DHT22;26642;55.766;37.828;2023-04-15T06:07:17;13.70;36.80
40636;DHT22;26642;55.766;37.828;2023-04-15T06:09:44;13.70;36.40
40636;DHT22;26642;55.766;37.828;2023-04-15T06:12:11;13.70;37.00
40636;DHT22;26642;55.766;37.828;2023-04-15T06:14:39;13.70;36.70
40636;DHT22;26642;55.766;37.828;2023-04-15T06:17:06;13.80;36.80
40636;DHT22;26642;55.766;37.828;2023-04-15T06:19:34;13.70;36.70
40636;DHT22;26642;55.766;37.828;2023-04-15T06:22:02;13.80;36.90
40636;DHT22;26642;55.766;37.828;2023-04-15T06:24:29;13.80;36.70
40636;DHT22;26642;55.766;37.828;2023-04-15T06:26:59;13.80;36.60
40636;DHT22;26642;55.766;37.828;2023-04-15T06:29:26;13.90;36.40
40636;DHT22;26642;55.766;37.828;2023-04-15T06:31:53;13.90;36.20
40636;DHT22;26642;55.766;37.828;2023-04-15T06:34:22;13.90;36.10
40636;DHT22;26642;55.766;37.828;2023-04-15T06:36:49;13.90;35.90
40636;DHT22;26642;55.766;37.828;2023-04-15T06:39:16;13.90;36.20
40636;DHT22;26642;55.766;37.828;2023-04-15T06:41:43;13.90;36.70
40636;DHT22;26642;55.766;37.828;2023-04-15T06:44:12;13.90;37.90
40636;DHT22;26642;55.766;37.828;2023-04-15T06:46:39;14.00;38.50
40636;DHT22;26642;55.766;37.828;2023-04-15T06:49:07;14.00;39.00
40636;DHT22;26642;55.766;37.828;2023-04-15T06:51:34;14.00;38.90
40636;DHT22;26642;55.766;37.828;2023-04-15T06:54:03;14.00;39.10
40636;DHT22;26642;55.766;37.828;2023-04-15T06:56:32;14.10;39.70
40636;DHT22;26642;55.766;37.828;2023-04-15T06:58:59;14.10;39.60
40636;DHT22;26642;55.766;37.828;2023-04-15T07:01:27;14.10;40.00
40636;DHT22;26642;55.766;37.828;2023-04-15T07:03:54;14.20;39.60
40636;DHT22;26642;55.766;37.828;2023-04-15T07:06:21;14.20;39.20
40636;DHT22;26642;55.766;37.828;2023-04-15T07:08:50;14.20;38.80
40636;DHT22;26642;55.766;37.828;2023-04-15T07:11:17;14.30;38.80
40636;DHT22;26642;55.766;37.828;2023-04-15T07:13:44;14.30;38.50
40636;DHT22;26642;55.766;37.828;2023-04-15T07:16:12;14.40;38.50
40636;DHT22;26642;55.766;37.828;2023-04-15T07:18:39;14.40;38.20
40636;DHT22;26642;55.766;37.828;2023-04-15T07:21:06;14.40;38.40
40636;DHT22;26642;55.766;37.828;2023-04-15T07:23:34;14.50;38.40
40636;DHT22;26642;55.766;37.828;2023-04-15T07:26:02;14.60;38.40
40636;DHT22;26642;55.766;37.828;2023-04-15T07:28:29;14.60;38.40
40636;DHT22;26642;55.766;37.828;2023-04-15T07:30:56;14.70;38.50
40636;DHT22;26642;55.766;37.828;2023-04-15T07:33:23;14.80;38.10
40636;DHT22;26642;55.766;37.828;2023-04-15T07:35:51;14.90;37.80
40636;DHT22;26642;55.766;37.828;2023-04-15T07:38:18;14.90;37.40
40636;DHT22;26642;55.766;37.828;2023-04-15T07:40:46;15.00;37.70
40636;DHT22;26642;55.766;37.828;2023-04-15T07:43:13;15.10;37.90
40636;DHT22;26642;55.766;37.828;2023-04-15T07:45:40;15.10;38.40
40636;DHT22;26642;55.766;37.828;2023-04-15T07:48:07;15.20;38.60
40636;DHT22;26642;55.766;37.828;2023-04-15T07:50:34;15.30;39.30
40636;DHT22;26642;55.766;37.828;2023-04-15T07:53:02;15.40;39.40
40636;DHT22;26642;55.766;37.828;2023-04-15T07:55:29;15.40;38.50
40636;DHT22;26642;55.766;37.828;2023-04-15T07:57:56;15.50;39.20
40636;DHT22;26642;55.766;37.828;2023-04-15T08:00:23;15.60;38.90
40636;DHT22;26642;55.766;37.828;2023-04-15T08:02:51;15.60;38.00
40636;DHT22;26642;55.766;37.828;2023-04-15T08:05:19;15.70;38.00
40636;DHT22;26642;55.766;37.828;2023-04-15T08:07:46;15.70;38.10
40636;DHT22;26642;55.766;37.828;2023-04-15T08:10:14;15.70;38.00
40636;DHT22;26642;55.766;37.828;2023-04-15T08:12:41;15.80;38.20
40636;DHT22;26642;55.766;37.828;2023-04-15T08:15:14;15.80;37.80
40636;DHT22;26642;55.766;37.828;2023-04-15T08:17:42;15.90;37.90
40636;DHT22;26642;55.766;37.828;2023-04-15T08:20:10;15.90;38.00
40636;DHT22;26642;55.766;37.828;2023-04-15T08:22:37;15.90;37.90
40636;DHT22;26642;55.766;37.828;2023-04-15T08:25:05;15.90;37.70
40636;DHT22;26642;55.766;37.828;2023-04-15T08:27:32;16.00;37.80
40636;DHT22;26642;55.766;37.828;2023-04-15T08:29:59;16.00;37.70
40636;DHT22;26642;55.766;37.828;2023-04-15T08:32:27;16.00;37.90
40636;DHT22;26642;55.766;37.828;2023-04-15T08:34:54;16.00;38.10
40636;DHT22;26642;55.766;37.828;2023-04-15T08:37:22;16.00;38.20
40636;DHT22;26642;55.766;37.828;2023-04-15T08:39:49;16.10;38.40
40636;DHT22;26642;55.766;37.828;2023-04-15T08:42:16;16.10;38.20
40636;DHT22;26642;55.766;37.828;2023-04-15T08:44:45;16.10;38.20
40636;DHT22;26642;55.766;37.828;2023-04-15T08:47:15;16.10;38.40
40636;DHT22;26642;55.766;37.828;2023-04-15T08:49:46;16.10;38.20
40636;DHT22;26642;55.766;37.828;2023-04-15T08:52:19;16.10;38.10
40636;DHT22;26642;55.766;37.828;2023-04-15T08:54:47;16.10;38.30
40636;DHT22;26642;55.766;37.828;2023-04-15T08:57:15;16.20;37.50
40636;DHT22;26642;55.766;37.828;2023-04-15T08:59:43;16.10;35.50
40636;DHT22;26642;55.766;37.828;2023-04-15T09:02:11;16.10;33.10
40636;DHT22;26642;55.766;37.828;2023-04-15T09:04:38;15.90;31.90
40636;DHT22;26642;55.766;37.828;2023-04-15T09:07:05;15.80;31.30
40636;DHT22;26642;55.766;37.828;2023-04-15T09:09:33;15.70;31.10
40636;DHT22;26642;55.766;37.828;2023-04-15T09:12:02;15.60;30.70
40636;DHT22;26642;55.766;37.828;2023-04-15T09:14:29;15.50;30.20
40636;DHT22;26642;55.766;37.828;2023-04-15T09:17:00;15.40;29.70
40636;DHT22;26642;55.766;37.828;2023-04-15T09:19:28;15.30;29.60
40636;DHT22;26642;55.766;37.828;2023-04-15T09:21:57;15.20;29.20
40636;DHT22;26642;55.766;37.828;2023-04-15T09:24:32;15.00;28.70
40636;DHT22;26642;55.766;37.828;2023-04-15T09:27:02;14.80;28.40
40636;DHT22;26642;55.766;37.828;2023-04-15T09:29:29;14.70;28.10
40636;DHT22;26642;55.766;37.828;2023-04-15T09:32:12;14.50;27.80
40636;DHT22;26642;55.766;37.828;2023-04-15T09:34:39;14.30;28.20
40636;DHT22;26642;55.766;37.828;2023-04-15T09:37:06;14.10;27.80
40636;DHT22;26642;55.766;37.828;2023-04-15T09:39:50;14.00;28.30
40636;DHT22;26642;55.766;37.828;2023-04-15T09:42:18;13.90;29.00
40636;DHT22;26642;55.766;37.828;2023-04-15T09:44:52;13.80;28.90
40636;DHT22;26642;55.766;37.828;2023-04-15T09:47:30;13.80;28.90
40636;DHT22;26642;55.766;37.828;2023-04-15T09:49:59;13.70;28.90
40636;DHT22;26642;55.766;37.828;2023-04-15T09:52:27;13.50;28.50
40636;DHT22;26642;55.766;37.828;2023-04-15T09:54:57;13.50;28.40
40636;DHT22;26642;55.766;37.828;2023-04-15T09:57:25;13.40;29.50
40636;DHT22;26642;55.766;37.828;2023-04-15T09:59:59;13.40;30.00
40636;DHT22;26642;55.766;37.828;2023-04-15T10:02:27;13.40;29.70
40636;DHT22;26642;55.766;37.828;2023-04-15T10:04:57;13.40;30.00
40636;DHT22;26642;55.766;37.828;2023-04-15T10:07:24;13.30;30.70
40636;DHT22;26642;55.766;37.828;2023-04-15T10:09:52;13.40;31.10
40636;DHT22;26642;55.766;37.828;2023-04-15T10:12:21;13.40;30.70
40636;DHT22;26642;55.766;37.828;2023-04-15T10:14:54;13.40;30.60
40636;DHT22;26642;55.766;37.828;2023-04-15T10:17:22;13.40;30.00
40636;DHT22;26642;55.766;37.828;2023-04-15T10:19:53;13.40;30.10
40636;DHT22;26642;55.766;37.828;2023-04-15T10:22:22;13.40;29.80
40636;DHT22;26642;55.766;37.828;2023-04-15T10:24:50;13.40;29.80
40636;DHT22;26642;55.766;37.828;2023-04-15T10:27:17;13.40;29.60
40636;DHT22;26642;55.766;37.828;2023-04-15T10:29:45;13.40;29.20
40636;DHT22;26642;55.766;37.828;2023-04-15T10:32:12;13.30;29.10
40636;DHT22;26642;55.766;37.828;2023-04-15T10:34:40;13.30;29.20
40636;DHT22;26642;55.766;37.828;2023-04-15T10:37:09;13.30;29.00
40636;DHT22;26642;55.766;37.828;2023-04-15T10:39:41;13.20;29.30
40636;DHT22;26642;55.766;37.828;2023-04-15T10:42:19;13.20;29.60
40636;DHT22;26642;55.766;37.828;2023-04-15T10:44:51;13.30;30.00
40636;DHT22;26642;55.766;37.828;2023-04-15T10:47:22;13.30;29.70
40636;DHT22;26642;55.766;37.828;2023-04-15T10:49:54;13.30;29.90
40636;DHT22;26642;55.766;37.828;2023-04-15T10:52:28;13.30;29.70
40636;DHT22;26642;55.766;37.828;2023-04-15T10:55:19;13.30;29.20
40636;DHT22;26642;55.766;37.828;2023-04-15T10:57:52;13.30;29.30
40636;DHT22;26642;55.766;37.828;2023-04-15T11:00:23;13.30;29.30
40636;DHT22;26642;55.766;37.828;2023-04-15T11:02:58;13.20;29.30
40636;DHT22;26642;55.766;37.828;2023-04-15T11:08:09;13.20;29.50
40636;DHT22;26642;55.766;37.828;2023-04-15T11:15:41;13.30;30.00
40636;DHT22;26642;55.766;37.828;2023-04-15T11:20:40;13.40;29.50
40636;DHT22;26642;55.766;37.828;2023-04-15T11:23:08;13.40;29.60
40636;DHT22;26642;55.766;37.828;2023-04-15T11:25:36;13.30;28.90
40636;DHT22;26642;55.766;37.828;2023-04-15T11:28:04;13.30;28.90
40636;DHT22;26642;55.766;37.828;2023-04-15T11:30:34;13.30;29.10
40636;DHT22;26642;55.766;37.828;2023-04-15T11:33:03;13.30;29.40
40636;DHT22;26642;55.766;37.828;2023-04-15T11:35:32;13.40;29.60
40636;DHT22;26642;55.766;37.828;2023-04-15T11:38:04;13.40;29.50
40636;DHT22;26642;55.766;37.828;2023-04-15T11:40:34;13.30;29.50
40636;DHT22;26642;55.766;37.828;2023-04-15T11:43:05;13.40;29.70
40636;DHT22;26642;55.766;37.828;2023-04-15T11:45:34;13.40;29.00
40636;DHT22;26642;55.766;37.828;2023-04-15T11:48:06;13.40;29.00
40636;DHT22;26642;55.766;37.828;2023-04-15T11:50:34;13.40;29.20
40636;DHT22;26642;55.766;37.828;2023-04-15T11:53:02;13.40;28.90
40636;DHT22;26642;55.766;37.828;2023-04-15T11:55:29;13.40;29.20
40636;DHT22;26642;55.766;37.828;2023-04-15T12:00:34;13.50;29.40
40636;DHT22;26642;55.766;37.828;2023-04-15T12:03:22;13.40;28.60
40636;DHT22;26642;55.766;37.828;2023-04-15T12:06:20;13.40;28.60
40636;DHT22;26642;55.766;37.828;2023-04-15T12:13:56;13.40;29.40
40636;DHT22;26642;55.766;37.828;2023-04-15T12:16:23;13.40;29.80
40636;DHT22;26642;55.766;37.828;2023-04-15T12:18:54;13.40;29.80
40636;DHT22;26642;55.766;37.828;2023-04-15T12:21:31;13.40;29.30
40636;DHT22;26642;55.766;37.828;2023-04-15T12:24:02;13.40;29.30
40636;DHT22;26642;55.766;37.828;2023-04-15T12:26:32;13.40;29.10
40636;DHT22;26642;55.766;37.828;2023-04-15T12:29:03;13.30;28.90
40636;DHT22;26642;55.766;37.828;2023-04-15T12:31:29;13.30;28.90
40636;DHT22;26642;55.766;37.828;2023-04-15T12:33:57;13.30;29.20
40636;DHT22;26642;55.766;37.828;2023-04-15T12:36:23;13.30;29.10
40636;DHT22;26642;55.766;37.828;2023-04-15T12:38:49;13.30;28.70
40636;DHT22;26642;55.766;37.828;2023-04-15T12:41:16;13.30;29.00
40636;DHT22;26642;55.766;37.828;2023-04-15T12:43:44;13.30;28.70
40636;DHT22;26642;55.766;37.828;2023-04-15T12:46:20;13.30;28.70
40636;DHT22;26642;55.766;37.828;2023-04-15T12:48:46;13.30;29.10
40636;DHT22;26642;55.766;37.828;2023-04-15T12:51:13;13.20;29.10
40636;DHT22;26642;55.766;37.828;2023-04-15T12:53:39;13.20;29.20
40636;DHT22;26642;55.766;37.828;2023-04-15T12:56:05;13.20;29.40
40636;DHT22;26642;55.766;37.828;2023-04-15T12:58:31;13.30;30.00
40636;DHT22;26642;55.766;37.828;2023-04-15T13:00:58;13.30;30.10
40636;DHT22;26642;55.766;37.828;2023-04-15T13:03:24;13.40;30.40
40636;DHT22;26642;55.766;37.828;2023-04-15T13:05:50;13.40;30.40
40636;DHT22;26642;55.766;37.828;2023-04-15T13:08:16;13.50;31.30
40636;DHT22;26642;55.766;37.828;2023-04-15T13:10:42;13.50;30.70
40636;DHT22;26642;55.766;37.828;2023-04-15T13:13:08;13.60;30.50
40636;DHT22;26642;55.766;37.828;2023-04-15T13:15:34;13.60;30.00
40636;DHT22;26642;55.766;37.828;2023-04-15T13:18:00;13.60;29.70
40636;DHT22;26642;55.766;37.828;2023-04-15T13:20:26;13.60;29.50
40636;DHT22;26642;55.766;37.828;2023-04-15T13:22:53;13.60;29.20
40636;DHT22;26642;55.766;37.828;2023-04-15T13:25:19;13.60;28.80
40636;DHT22;26642;55.766;37.828;2023-04-15T13:27:45;13.60;28.50
40636;DHT22;26642;55.766;37.828;2023-04-15T13:30:11;13.60;28.90
40636;DHT22;26642;55.766;37.828;2023-04-15T13:32:37;13.60;29.20
40636;DHT22;26642;55.766;37.828;2023-04-15T13:35:04;13.60;28.80
40636;DHT22;26642;55.766;37.828;2023-04-15T13:37:30;13.60;28.70
40636;DHT22;26642;55.766;37.828;2023-04-15T13:39:56;13.50;28.90
40636;DHT22;26642;55.766;37.828;2023-04-15T13:42:23;13.60;29.20
40636;DHT22;26642;55.766;37.828;2023-04-15T13:44:49;13.60;29.60
40636;DHT22;26642;55.766;37.828;2023-04-15T13:47:17;13.60;29.50
40636;DHT22;26642;55.766;37.828;2023-04-15T13:49:44;13.60;29.50
40636;DHT22;26642;55.766;37.828;2023-04-15T13:52:10;13.70;30.00
40636;DHT22;26642;55.766;37.828;2023-04-15T13:54:37;13.70;29.20
40636;DHT22;26642;55.766;37.828;2023-04-15T13:57:03;13.60;29.10
40636;DHT22;26642;55.766;37.828;2023-04-15T13:59:29;13.70;29.30
40636;DHT22;26642;55.766;37.828;2023-04-15T14:01:55;13.70;29.40
40636;DHT22;26642;55.766;37.828;2023-04-15T14:04:21;13.70;29.50
40636;DHT22;26642;55.766;37.828;2023-04-15T14:06:47;13.70;29.50
40636;DHT22;26642;55.766;37.828;2023-04-15T14:09:14;13.70;29.60
40636;DHT22;26642;55.766;37.828;2023-04-15T14:11:40;13.70;29.10
40636;DHT22;26642;55.766;37.828;2023-04-15T14:14:06;13.70;29.10
40636;DHT22;26642;55.766;37.828;2023-04-15T14:16:32;13.70;29.10
40636;DHT22;26642;55.766;37.828;2023-04-15T14:18:58;13.60;29.70
40636;DHT22;26642;55.766;37.828;2023-04-15T14:21:25;13.70;29.20
40636;DHT22;26642;55.766;37.828;2023-04-15T14:23:52;13.60;29.20
40636;DHT22;26642;55.766;37.828;2023-04-15T14:26:18;13.60;29.20
40636;DHT22;26642;55.766;37.828;2023-04-15T14:28:45;13.60;29.50
40636;DHT22;26642;55.766;37.828;2023-04-15T14:31:11;13.60;29.80
40636;DHT22;26642;55.766;37.828;2023-04-15T14:33:37;13.60;29.70
40636;DHT22;26642;55.766;37.828;2023-04-15T14:36:03;13.60;29.60
40636;DHT22;26642;55.766;37.828;2023-04-15T14:38:29;13.60;29.10
40636;DHT22;26642;55.766;37.828;2023-04-15T14:40:55;13.60;28.70
40636;DHT22;26642;55.766;37.828;2023-04-15T14:43:21;13.50;28.70
40636;DHT22;26642;55.766;37.828;2023-04-15T14:45:47;13.50;29.10
40636;DHT22;26642;55.766;37.828;2023-04-15T14:48:13;13.50;29.40
40636;DHT22;26642;55.766;37.828;2023-04-15T14:50:39;13.50;29.70
40636;DHT22;26642;55.766;37.828;2023-04-15T14:53:05;13.50;30.00
40636;DHT22;26642;55.766;37.828;2023-04-15T14:55:32;13.50;30.00
40636;DHT22;26642;55.766;37.828;2023-04-15T14:57:58;13.60;30.20
40636;DHT22;26642;55.766;37.828;2023-04-15T15:00:24;13.60;30.50
40636;DHT22;26642;55.766;37.828;2023-04-15T15:02:50;13.60;30.70
40636;DHT22;26642;55.766;37.828;2023-04-15T15:05:16;13.60;31.20
40636;DHT22;26642;55.766;37.828;2023-04-15T15:07:42;13.60;31.30
40636;DHT22;26642;55.766;37.828;2023-04-15T15:10:08;13.70;30.80
40636;DHT22;26642;55.766;37.828;2023-04-15T15:12:34;13.60;30.50
40636;DHT22;26642;55.766;37.828;2023-04-15T15:15:02;13.60;30.50
40636;DHT22;26642;55.766;37.828;2023-04-15T15:17:28;13.70;31.00
40636;DHT22;26642;55.766;37.828;2023-04-15T15:19:54;13.70;31.40
40636;DHT22;26642;55.766;37.828;2023-04-15T15:22:20;13.70;31.60
40636;DHT22;26642;55.766;37.828;2023-04-15T15:24:46;13.70;31.60
40636;DHT22;26642;55.766;37.828;2023-04-15T15:27:12;13.70;31.90
40636;DHT22;26642;55.766;37.828;2023-04-15T15:29:38;13.70;32.10
40636;DHT22;26642;55.766;37.828;2023-04-15T15:32:04;13.70;32.10
40636;DHT22;26642;55.766;37.828;2023-04-15T15:34:30;13.80;32.20
40636;DHT22;26642;55.766;37.828;2023-04-15T15:36:56;13.70;31.80